sensor_id;sensor_type;location;lat;lon;timestamp;P1;durP1;ratioP1;P2;durP2;ratioP2
22565;SDS011;11449;51.330;19.378;2023-04-06T00:03:05;126.90;;;42.10;;
22565;SDS011;11449;51.330;19.378;2023-04-06T00:08:13;127.30;;;42.60;;
22565;SDS011;11449;51.330;19.378;2023-04-06T00:13:20;143.00;;;50.10;;
22565;SDS011;11449;51.330;19.378;2023-04-06T00:18:31;120.90;;;39.10;;
22565;SDS011;11449;51.330;19.378;2023-04-06T00:23:39;120.60;;;37.40;;
22565;SDS011;11449;51.330;19.378;2023-04-06T00:28:47;122.10;;;36.10;;
22565;SDS011;11449;51.330;19.378;2023-04-06T00:33:57;116.10;;;37.20;;
22565;SDS011;11449;51.330;19.378;2023-04-06T00:39:05;114.20;;;35.70;;
22565;SDS011;11449;51.330;19.378;2023-04-06T00:44:13;103.10;;;32.80;;
22565;SDS011;11449;51.330;19.378;2023-04-06T00:49:21;120.20;;;38.50;;
22565;SDS011;11449;51.330;19.378;2023-04-06T00:54:50;119.10;;;35.60;;
22565;SDS011;11449;51.330;19.378;2023-04-06T00:59:57;114.00;;;33.60;;
22565;SDS011;11449;51.330;19.378;2023-04-06T01:05:06;128.70;;;37.40;;
22565;SDS011;11449;51.330;19.378;2023-04-06T01:10:23;143.50;;;45.70;;
22565;SDS011;11449;51.330;19.378;2023-04-06T01:15:51;175.60;;;49.50;;
22565;SDS011;11449;51.330;19.378;2023-04-06T01:21:08;153.50;;;45.80;;
22565;SDS011;11449;51.330;19.378;2023-04-06T01:26:26;160.20;;;50.90;;
22565;SDS011;11449;51.330;19.378;2023-04-06T01:31:39;176.30;;;50.80;;
22565;SDS011;11449;51.330;19.378;2023-04-06T01:36:48;142.30;;;44.30;;
22565;SDS011;11449;51.330;19.378;2023-04-06T01:42:01;134.90;;;40.60;;
22565;SDS011;11449;51.330;19.378;2023-04-06T01:47:10;128.50;;;42.50;;
22565;SDS011;11449;51.330;19.378;2023-04-06T01:52:19;109.00;;;35.90;;
22565;SDS011;11449;51.330;19.378;2023-04-06T01:57:28;121.00;;;41.60;;
22565;SDS011;11449;51.330;19.378;2023-04-06T02:02:47;133.10;;;45.30;;
22565;SDS011;11449;51.330;19.378;2023-04-06T02:07:58;137.90;;;43.70;;
22565;SDS011;11449;51.330;19.378;2023-04-06T02:13:08;140.10;;;44.30;;
22565;SDS011;11449;51.330;19.378;2023-04-06T02:18:19;162.50;;;53.40;;
22565;SDS011;11449;51.330;19.378;2023-04-06T02:23:26;153.70;;;49.90;;
22565;SDS011;11449;51.330;19.378;2023-04-06T02:28:32;152.80;;;49.20;;
22565;SDS011;11449;51.330;19.378;2023-04-06T02:33:40;141.20;;;46.00;;
22565;SDS011;11449;51.330;19.378;2023-04-06T02:38:48;156.20;;;48.20;;
22565;SDS011;11449;51.330;19.378;2023-04-06T02:43:57;147.60;;;47.20;;
22565;SDS011;11449;51.330;19.378;2023-04-06T02:49:18;144.20;;;46.80;;
22565;SDS011;11449;51.330;19.378;2023-04-06T02:54:21;134.70;;;48.00;;
22565;SDS011;11449;51.330;19.378;2023-04-06T02:59:29;114.80;;;41.00;;
22565;SDS011;11449;51.330;19.378;2023-04-06T03:04:46;94.70;;;34.30;;
22565;SDS011;11449;51.330;19.378;2023-04-06T03:09:59;98.80;;;33.50;;
22565;SDS011;11449;51.330;19.378;2023-04-06T03:15:07;104.70;;;31.70;;
22565;SDS011;11449;51.330;19.378;2023-04-06T03:20:19;93.90;;;30.30;;
22565;SDS011;11449;51.330;19.378;2023-04-06T03:25:27;94.90;;;28.70;;
22565;SDS011;11449;51.330;19.378;2023-04-06T03:30:35;108.30;;;30.70;;
22565;SDS011;11449;51.330;19.378;2023-04-06T03:35:44;96.40;;;29.20;;
22565;SDS011;11449;51.330;19.378;2023-04-06T03:40:47;100.10;;;31.40;;
22565;SDS011;11449;51.330;19.378;2023-04-06T03:45:58;106.60;;;34.20;;
22565;SDS011;11449;51.330;19.378;2023-04-06T03:51:06;113.40;;;34.60;;
22565;SDS011;11449;51.330;19.378;2023-04-06T03:56:14;101.10;;;34.60;;
22565;SDS011;11449;51.330;19.378;2023-04-06T04:01:22;145.10;;;41.30;;
22565;SDS011;11449;51.330;19.378;2023-04-06T04:06:30;124.00;;;39.90;;
22565;SDS011;11449;51.330;19.378;2023-04-06T04:11:34;131.90;;;42.40;;
22565;SDS011;11449;51.330;19.378;2023-04-06T04:16:39;117.30;;;41.00;;
22565;SDS011;11449;51.330;19.378;2023-04-06T04:21:48;127.40;;;42.80;;
22565;SDS011;11449;51.330;19.378;2023-04-06T04:27:03;140.10;;;44.80;;
22565;SDS011;11449;51.330;19.378;2023-04-06T04:32:12;157.50;;;48.90;;
22565;SDS011;11449;51.330;19.378;2023-04-06T04:37:21;137.30;;;45.60;;
22565;SDS011;11449;51.330;19.378;2023-04-06T04:42:30;207.60;;;73.30;;
22565;SDS011;11449;51.330;19.378;2023-04-06T04:47:43;204.70;;;71.50;;
22565;SDS011;11449;51.330;19.378;2023-04-06T04:52:51;203.20;;;69.50;;
22565;SDS011;11449;51.330;19.378;2023-04-06T04:58:02;177.60;;;65.20;;
22565;SDS011;11449;51.330;19.378;2023-04-06T05:03:31;187.40;;;59.40;;
22565;SDS011;11449;51.330;19.378;2023-04-06T05:08:41;183.70;;;62.40;;
22565;SDS011;11449;51.330;19.378;2023-04-06T05:13:50;191.60;;;69.70;;
22565;SDS011;11449;51.330;19.378;2023-04-06T05:18:59;169.60;;;60.80;;
22565;SDS011;11449;51.330;19.378;2023-04-06T05:24:14;173.20;;;61.40;;
22565;SDS011;11449;51.330;19.378;2023-04-06T05:29:22;204.10;;;66.80;;
22565;SDS011;11449;51.330;19.378;2023-04-06T05:34:30;265.70;;;74.20;;
22565;SDS011;11449;51.330;19.378;2023-04-06T05:39:39;222.00;;;77.00;;
22565;SDS011;11449;51.330;19.378;2023-04-06T05:44:48;225.20;;;78.00;;
22565;SDS011;11449;51.330;19.378;2023-04-06T05:49:52;161.80;;;55.00;;
22565;SDS011;11449;51.330;19.378;2023-04-06T05:55:02;117.30;;;36.80;;
22565;SDS011;11449;51.330;19.378;2023-04-06T06:00:10;117.50;;;36.80;;
22565;SDS011;11449;51.330;19.378;2023-04-06T06:05:24;150.20;;;41.60;;
22565;SDS011;11449;51.330;19.378;2023-04-06T06:10:35;113.90;;;36.00;;
22565;SDS011;11449;51.330;19.378;2023-04-06T06:15:45;104.80;;;33.10;;
22565;SDS011;11449;51.330;19.378;2023-04-06T06:20:48;118.10;;;32.90;;
22565;SDS011;11449;51.330;19.378;2023-04-06T06:25:52;118.30;;;36.70;;
22565;SDS011;11449;51.330;19.378;2023-04-06T06:31:01;121.50;;;36.50;;
22565;SDS011;11449;51.330;19.378;2023-04-06T06:36:10;118.70;;;36.90;;
22565;SDS011;11449;51.330;19.378;2023-04-06T06:41:13;114.40;;;34.60;;
22565;SDS011;11449;51.330;19.378;2023-04-06T06:46:21;95.80;;;34.10;;
22565;SDS011;11449;51.330;19.378;2023-04-06T06:51:29;136.30;;;33.30;;
22565;SDS011;11449;51.330;19.378;2023-04-06T06:56:32;127.10;;;35.60;;
22565;SDS011;11449;51.330;19.378;2023-04-06T07:01:39;109.70;;;28.70;;
22565;SDS011;11449;51.330;19.378;2023-04-06T07:06:47;127.70;;;33.30;;
22565;SDS011;11449;51.330;19.378;2023-04-06T07:11:54;81.90;;;19.30;;
22565;SDS011;11449;51.330;19.378;2023-04-06T07:16:59;69.10;;;17.20;;
22565;SDS011;11449;51.330;19.378;2023-04-06T07:22:08;58.50;;;14.90;;
22565;SDS011;11449;51.330;19.378;2023-04-06T07:27:16;51.00;;;11.60;;
22565;SDS011;11449;51.330;19.378;2023-04-06T07:32:24;59.70;;;12.80;;
22565;SDS011;11449;51.330;19.378;2023-04-06T07:37:33;49.20;;;11.60;;
22565;SDS011;11449;51.330;19.378;2023-04-06T07:42:41;62.30;;;15.90;;
22565;SDS011;11449;51.330;19.378;2023-04-06T07:47:49;68.80;;;15.40;;
22565;SDS011;11449;51.330;19.378;2023-04-06T07:52:59;62.60;;;13.70;;
22565;SDS011;11449;51.330;19.378;2023-04-06T07:58:08;59.70;;;14.10;;
22565;SDS011;11449;51.330;19.378;2023-04-06T08:03:11;68.60;;;16.30;;
22565;SDS011;11449;51.330;19.378;2023-04-06T08:08:19;63.10;;;15.60;;
22565;SDS011;11449;51.330;19.378;2023-04-06T08:13:22;52.30;;;10.70;;
22565;SDS011;11449;51.330;19.378;2023-04-06T08:18:32;63.70;;;13.60;;
22565;SDS011;11449;51.330;19.378;2023-04-06T08:23:40;55.10;;;11.90;;
22565;SDS011;11449;51.330;19.378;2023-04-06T08:28:47;52.80;;;13.50;;
22565;SDS011;11449;51.330;19.378;2023-04-06T08:33:53;58.20;;;11.60;;
22565;SDS011;11449;51.330;19.378;2023-04-06T08:39:00;63.30;;;13.90;;
22565;SDS011;11449;51.330;19.378;2023-04-06T08:44:08;58.00;;;11.90;;
22565;SDS011;11449;51.330;19.378;2023-04-06T08:49:16;66.50;;;13.00;;
22565;SDS011;11449;51.330;19.378;2023-04-06T08:54:24;67.50;;;13.80;;
22565;SDS011;11449;51.330;19.378;2023-04-06T08:59:32;59.10;;;13.10;;
22565;SDS011;11449;51.330;19.378;2023-04-06T09:04:35;59.70;;;11.60;;
22565;SDS011;11449;51.330;19.378;2023-04-06T09:09:43;59.10;;;11.20;;
22565;SDS011;11449;51.330;19.378;2023-04-06T09:14:55;45.30;;;10.10;;
22565;SDS011;11449;51.330;19.378;2023-04-06T09:20:03;49.90;;;11.60;;
22565;SDS011;11449;51.330;19.378;2023-04-06T09:25:18;54.70;;;11.20;;
22565;SDS011;11449;51.330;19.378;2023-04-06T09:30:27;43.20;;;9.80;;
22565;SDS011;11449;51.330;19.378;2023-04-06T09:35:34;48.10;;;10.60;;
22565;SDS011;11449;51.330;19.378;2023-04-06T09:40:51;51.60;;;9.80;;
22565;SDS011;11449;51.330;19.378;2023-04-06T09:46:00;53.50;;;10.50;;
22565;SDS011;11449;51.330;19.378;2023-04-06T09:51:08;78.90;;;27.50;;
22565;SDS011;11449;51.330;19.378;2023-04-06T09:56:20;64.30;;;16.80;;
22565;SDS011;11449;51.330;19.378;2023-04-06T10:06:39;19.90;;;10.60;;
22565;SDS011;11449;51.330;19.378;2023-04-06T10:11:47;13.60;;;8.80;;
22565;SDS011;11449;51.330;19.378;2023-04-06T10:16:55;12.50;;;7.60;;
22565;SDS011;11449;51.330;19.378;2023-04-06T10:22:03;14.20;;;10.20;;
22565;SDS011;11449;51.330;19.378;2023-04-06T10:27:12;13.10;;;8.20;;
22565;SDS011;11449;51.330;19.378;2023-04-06T10:32:19;14.50;;;8.50;;
22565;SDS011;11449;51.330;19.378;2023-04-06T10:37:27;10.30;;;6.60;;
22565;SDS011;11449;51.330;19.378;2023-04-06T10:42:37;21.70;;;10.60;;
22565;SDS011;11449;51.330;19.378;2023-04-06T10:47:45;23.30;;;12.50;;
22565;SDS011;11449;51.330;19.378;2023-04-06T10:52:59;20.90;;;11.50;;
22565;SDS011;11449;51.330;19.378;2023-04-06T10:58:08;26.80;;;14.00;;
22565;SDS011;11449;51.330;19.378;2023-04-06T11:03:15;28.80;;;15.50;;
22565;SDS011;11449;51.330;19.378;2023-04-06T11:08:29;20.90;;;11.80;;
22565;SDS011;11449;51.330;19.378;2023-04-06T11:13:50;36.90;;;16.40;;
22565;SDS011;11449;51.330;19.378;2023-04-06T11:18:59;31.50;;;14.40;;
22565;SDS011;11449;51.330;19.378;2023-04-06T11:29:29;57.20;;;10.40;;
22565;SDS011;11449;51.330;19.378;2023-04-06T11:34:38;73.80;;;17.20;;
22565;SDS011;11449;51.330;19.378;2023-04-06T11:39:47;60.30;;;12.80;;
22565;SDS011;11449;51.330;19.378;2023-04-06T11:44:57;66.40;;;14.60;;
22565;SDS011;11449;51.330;19.378;2023-04-06T11:50:09;62.50;;;12.10;;
22565;SDS011;11449;51.330;19.378;2023-04-06T11:55:18;89.80;;;16.50;;
22565;SDS011;11449;51.330;19.378;2023-04-06T12:00:25;64.50;;;16.40;;
22565;SDS011;11449;51.330;19.378;2023-04-06T12:05:33;70.40;;;15.80;;
22565;SDS011;11449;51.330;19.378;2023-04-06T12:15:54;75.30;;;17.30;;
22565;SDS011;11449;51.330;19.378;2023-04-06T12:21:02;58.10;;;12.60;;
22565;SDS011;11449;51.330;19.378;2023-04-06T12:26:10;67.70;;;13.00;;
22565;SDS011;11449;51.330;19.378;2023-04-06T12:31:19;62.70;;;12.60;;
22565;SDS011;11449;51.330;19.378;2023-04-06T12:36:28;52.20;;;12.30;;
22565;SDS011;11449;51.330;19.378;2023-04-06T12:41:38;59.10;;;13.10;;
22565;SDS011;11449;51.330;19.378;2023-04-06T12:46:48;56.30;;;14.70;;
22565;SDS011;11449;51.330;19.378;2023-04-06T12:51:57;60.40;;;15.60;;
22565;SDS011;11449;51.330;19.378;2023-04-06T12:57:05;56.90;;;14.70;;
22565;SDS011;11449;51.330;19.378;2023-04-06T13:02:13;60.40;;;12.90;;
22565;SDS011;11449;51.330;19.378;2023-04-06T13:07:21;64.20;;;18.20;;
22565;SDS011;11449;51.330;19.378;2023-04-06T13:12:29;56.20;;;15.10;;
22565;SDS011;11449;51.330;19.378;2023-04-06T13:17:37;59.30;;;14.30;;
22565;SDS011;11449;51.330;19.378;2023-04-06T13:22:45;67.20;;;17.10;;
22565;SDS011;11449;51.330;19.378;2023-04-06T13:27:53;57.30;;;13.90;;
22565;SDS011;11449;51.330;19.378;2023-04-06T13:33:01;60.80;;;16.20;;
22565;SDS011;11449;51.330;19.378;2023-04-06T13:38:09;51.90;;;14.30;;
22565;SDS011;11449;51.330;19.378;2023-04-06T13:43:17;95.00;;;31.00;;
22565;SDS011;11449;51.330;19.378;2023-04-06T13:48:27;67.60;;;18.90;;
22565;SDS011;11449;51.330;19.378;2023-04-06T13:53:34;64.00;;;18.50;;
22565;SDS011;11449;51.330;19.378;2023-04-06T13:58:42;56.70;;;16.90;;
22565;SDS011;11449;51.330;19.378;2023-04-06T14:03:50;57.60;;;17.10;;
22565;SDS011;11449;51.330;19.378;2023-04-06T14:08:55;58.70;;;15.00;;
22565;SDS011;11449;51.330;19.378;2023-04-06T14:14:04;52.00;;;13.80;;
22565;SDS011;11449;51.330;19.378;2023-04-06T14:19:12;66.90;;;18.60;;
22565;SDS011;11449;51.330;19.378;2023-04-06T14:24:21;64.20;;;18.30;;
22565;SDS011;11449;51.330;19.378;2023-04-06T14:29:30;65.90;;;18.90;;
22565;SDS011;11449;51.330;19.378;2023-04-06T14:34:37;69.80;;;20.30;;
22565;SDS011;11449;51.330;19.378;2023-04-06T14:39:45;56.50;;;15.40;;
22565;SDS011;11449;51.330;19.378;2023-04-06T14:44:53;75.50;;;17.40;;
22565;SDS011;11449;51.330;19.378;2023-04-06T14:50:01;65.90;;;15.50;;
22565;SDS011;11449;51.330;19.378;2023-04-06T14:55:09;82.30;;;18.20;;
22565;SDS011;11449;51.330;19.378;2023-04-06T15:00:17;76.70;;;18.60;;
22565;SDS011;11449;51.330;19.378;2023-04-06T15:05:25;91.10;;;19.60;;
22565;SDS011;11449;51.330;19.378;2023-04-06T15:10:33;65.30;;;16.40;;
22565;SDS011;11449;51.330;19.378;2023-04-06T15:15:41;67.10;;;17.70;;
22565;SDS011;11449;51.330;19.378;2023-04-06T15:20:49;78.10;;;19.70;;
22565;SDS011;11449;51.330;19.378;2023-04-06T15:25:58;73.10;;;17.50;;
22565;SDS011;11449;51.330;19.378;2023-04-06T15:31:12;62.50;;;16.60;;
22565;SDS011;11449;51.330;19.378;2023-04-06T15:36:23;63.70;;;16.90;;
22565;SDS011;11449;51.330;19.378;2023-04-06T15:41:32;84.40;;;27.10;;
22565;SDS011;11449;51.330;19.378;2023-04-06T15:46:40;44.70;;;11.80;;
22565;SDS011;11449;51.330;19.378;2023-04-06T15:51:48;59.40;;;15.80;;
22565;SDS011;11449;51.330;19.378;2023-04-06T15:56:56;51.70;;;14.80;;
22565;SDS011;11449;51.330;19.378;2023-04-06T16:01:58;60.50;;;14.10;;
22565;SDS011;11449;51.330;19.378;2023-04-06T16:07:02;76.90;;;18.50;;
22565;SDS011;11449;51.330;19.378;2023-04-06T16:12:10;59.10;;;17.00;;
22565;SDS011;11449;51.330;19.378;2023-04-06T16:17:18;87.10;;;24.50;;
22565;SDS011;11449;51.330;19.378;2023-04-06T16:22:26;91.60;;;17.70;;
22565;SDS011;11449;51.330;19.378;2023-04-06T16:27:35;83.50;;;18.80;;
22565;SDS011;11449;51.330;19.378;2023-04-06T16:32:43;66.40;;;15.40;;
22565;SDS011;11449;51.330;19.378;2023-04-06T16:37:53;73.40;;;18.40;;
22565;SDS011;11449;51.330;19.378;2023-04-06T16:43:00;77.60;;;14.60;;
22565;SDS011;11449;51.330;19.378;2023-04-06T16:48:08;84.20;;;15.80;;
22565;SDS011;11449;51.330;19.378;2023-04-06T16:53:16;74.40;;;16.40;;
22565;SDS011;11449;51.330;19.378;2023-04-06T16:58:24;96.70;;;19.30;;
22565;SDS011;11449;51.330;19.378;2023-04-06T17:03:32;93.60;;;16.80;;
22565;SDS011;11449;51.330;19.378;2023-04-06T17:08:40;103.20;;;17.10;;
22565;SDS011;11449;51.330;19.378;2023-04-06T17:13:48;92.10;;;17.00;;
22565;SDS011;11449;51.330;19.378;2023-04-06T17:18:57;76.50;;;15.80;;
22565;SDS011;11449;51.330;19.378;2023-04-06T17:24:05;98.60;;;19.90;;
22565;SDS011;11449;51.330;19.378;2023-04-06T17:29:13;108.70;;;20.70;;
22565;SDS011;11449;51.330;19.378;2023-04-06T17:34:16;67.70;;;18.90;;
22565;SDS011;11449;51.330;19.378;2023-04-06T17:39:23;92.60;;;20.50;;
22565;SDS011;11449;51.330;19.378;2023-04-06T17:44:31;86.90;;;22.00;;
22565;SDS011;11449;51.330;19.378;2023-04-06T17:49:37;102.20;;;30.40;;
22565;SDS011;11449;51.330;19.378;2023-04-06T17:54:45;82.00;;;19.40;;
22565;SDS011;11449;51.330;19.378;2023-04-06T17:59:48;93.80;;;21.40;;
22565;SDS011;11449;51.330;19.378;2023-04-06T18:04:55;87.40;;;18.90;;
22565;SDS011;11449;51.330;19.378;2023-04-06T18:10:03;87.10;;;22.70;;
22565;SDS011;11449;51.330;19.378;2023-04-06T18:15:11;107.90;;;23.70;;
22565;SDS011;11449;51.330;19.378;2023-04-06T18:20:20;82.70;;;21.60;;
22565;SDS011;11449;51.330;19.378;2023-04-06T18:25:23;86.50;;;18.80;;
22565;SDS011;11449;51.330;19.378;2023-04-06T18:30:26;98.50;;;23.10;;
22565;SDS011;11449;51.330;19.378;2023-04-06T18:35:34;104.90;;;24.90;;
22565;SDS011;11449;51.330;19.378;2023-04-06T18:40:42;115.90;;;23.80;;
22565;SDS011;11449;51.330;19.378;2023-04-06T18:45:50;209.00;;;29.50;;
22565;SDS011;11449;51.330;19.378;2023-04-06T18:50:57;75.90;;;18.60;;
22565;SDS011;11449;51.330;19.378;2023-04-06T18:56:11;78.70;;;18.00;;
22565;SDS011;11449;51.330;19.378;2023-04-06T19:01:20;72.20;;;18.10;;
22565;SDS011;11449;51.330;19.378;2023-04-06T19:06:28;75.40;;;20.20;;
22565;SDS011;11449;51.330;19.378;2023-04-06T19:11:35;78.60;;;21.70;;
22565;SDS011;11449;51.330;19.378;2023-04-06T19:16:43;74.10;;;20.10;;
22565;SDS011;11449;51.330;19.378;2023-04-06T19:21:58;127.40;;;32.30;;
22565;SDS011;11449;51.330;19.378;2023-04-06T19:27:08;85.90;;;25.40;;
22565;SDS011;11449;51.330;19.378;2023-04-06T19:32:16;89.40;;;26.90;;
22565;SDS011;11449;51.330;19.378;2023-04-06T19:37:33;84.10;;;22.00;;
22565;SDS011;11449;51.330;19.378;2023-04-06T19:42:36;80.40;;;20.90;;
22565;SDS011;11449;51.330;19.378;2023-04-06T19:47:45;88.90;;;20.50;;
22565;SDS011;11449;51.330;19.378;2023-04-06T19:52:53;89.50;;;19.00;;
22565;SDS011;11449;51.330;19.378;2023-04-06T19:58:01;103.50;;;24.50;;
22565;SDS011;11449;51.330;19.378;2023-04-06T20:03:09;69.20;;;20.30;;
22565;SDS011;11449;51.330;19.378;2023-04-06T20:08:16;77.30;;;23.50;;
22565;SDS011;11449;51.330;19.378;2023-04-06T20:13:24;71.40;;;20.00;;
22565;SDS011;11449;51.330;19.378;2023-04-06T20:18:32;74.10;;;19.00;;
22565;SDS011;11449;51.330;19.378;2023-04-06T20:23:40;74.70;;;21.20;;
22565;SDS011;11449;51.330;19.378;2023-04-06T20:28:48;71.40;;;18.70;;
22565;SDS011;11449;51.330;19.378;2023-04-06T20:33:51;59.80;;;18.40;;
22565;SDS011;11449;51.330;19.378;2023-04-06T20:38:53;69.80;;;18.80;;
22565;SDS011;11449;51.330;19.378;2023-04-06T20:44:01;64.10;;;17.00;;
22565;SDS011;11449;51.330;19.378;2023-04-06T20:49:09;55.30;;;15.50;;
22565;SDS011;11449;51.330;19.378;2023-04-06T20:54:17;65.90;;;17.30;;
22565;SDS011;11449;51.330;19.378;2023-04-06T20:59:25;99.90;;;21.60;;
22565;SDS011;11449;51.330;19.378;2023-04-06T21:04:28;96.50;;;19.00;;
22565;SDS011;11449;51.330;19.378;2023-04-06T21:09:36;87.80;;;18.70;;
22565;SDS011;11449;51.330;19.378;2023-04-06T21:14:44;82.00;;;18.00;;
22565;SDS011;11449;51.330;19.378;2023-04-06T21:19:52;84.30;;;17.70;;
22565;SDS011;11449;51.330;19.378;2023-04-06T21:25:00;65.80;;;15.40;;
22565;SDS011;11449;51.330;19.378;2023-04-06T21:30:08;64.20;;;16.90;;
22565;SDS011;11449;51.330;19.378;2023-04-06T21:35:15;65.90;;;16.60;;
22565;SDS011;11449;51.330;19.378;2023-04-06T21:40:23;50.10;;;16.30;;
22565;SDS011;11449;51.330;19.378;2023-04-06T21:45:31;70.20;;;17.00;;
22565;SDS011;11449;51.330;19.378;2023-04-06T21:50:39;75.00;;;17.60;;
22565;SDS011;11449;51.330;19.378;2023-04-06T21:55:49;68.50;;;17.90;;
22565;SDS011;11449;51.330;19.378;2023-04-06T22:00:57;49.30;;;14.00;;
22565;SDS011;11449;51.330;19.378;2023-04-06T22:06:07;47.60;;;14.80;;
22565;SDS011;11449;51.330;19.378;2023-04-06T22:11:15;53.80;;;15.60;;
22565;SDS011;11449;51.330;19.378;2023-04-06T22:16:23;51.80;;;14.40;;
22565;SDS011;11449;51.330;19.378;2023-04-06T22:21:31;42.70;;;14.10;;
22565;SDS011;11449;51.330;19.378;2023-04-06T22:26:38;47.90;;;14.40;;
22565;SDS011;11449;51.330;19.378;2023-04-06T22:31:46;64.10;;;16.10;;
22565;SDS011;11449;51.330;19.378;2023-04-06T22:36:54;64.80;;;16.00;;
22565;SDS011;11449;51.330;19.378;2023-04-06T22:41:57;68.40;;;16.50;;
22565;SDS011;11449;51.330;19.378;2023-04-06T22:47:04;61.70;;;15.40;;
22565;SDS011;11449;51.330;19.378;2023-04-06T22:52:12;59.00;;;14.90;;
22565;SDS011;11449;51.330;19.378;2023-04-06T22:57:20;64.50;;;14.60;;
22565;SDS011;11449;51.330;19.378;2023-04-06T23:02:28;50.10;;;14.40;;
22565;SDS011;11449;51.330;19.378;2023-04-06T23:07:36;55.30;;;13.80;;
22565;SDS011;11449;51.330;19.378;2023-04-06T23:12:44;61.00;;;14.20;;
22565;SDS011;11449;51.330;19.378;2023-04-06T23:17:52;74.00;;;14.90;;
22565;SDS011;11449;51.330;19.378;2023-04-06T23:22:55;55.10;;;14.30;;
22565;SDS011;11449;51.330;19.378;2023-04-06T23:27:58;52.30;;;13.40;;
22565;SDS011;11449;51.330;19.378;2023-04-06T23:33:06;54.60;;;13.80;;
22565;SDS011;11449;51.330;19.378;2023-04-06T23:38:12;36.70;;;12.70;;
22565;SDS011;11449;51.330;19.378;2023-04-06T23:43:15;44.50;;;11.60;;
22565;SDS011;11449;51.330;19.378;2023-04-06T23:48:22;47.20;;;11.40;;
22565;SDS011;11449;51.330;19.378;2023-04-06T23:53:30;48.40;;;12.30;;
22565;SDS011;11449;51.330;19.378;2023-04-06T23:58:38;48.90;;;11.90;;
